sensor_id;sensor_type;location;lat;lon;timestamp;P1;durP1;ratioP1;P2;durP2;ratioP2
13588;SDS011;6865;52.552;13.434;2023-08-07T00:01:59;4.30;;;2.65;;
13588;SDS011;6865;52.552;13.434;2023-08-07T00:04:26;2.67;;;2.47;;
13588;SDS011;6865;52.552;13.434;2023-08-07T00:06:54;3.30;;;2.73;;
13588;SDS011;6865;52.552;13.434;2023-08-07T00:09:20;6.27;;;2.63;;
13588;SDS011;6865;52.552;13.434;2023-08-07T00:11:47;4.47;;;2.50;;
13588;SDS011;6865;52.552;13.434;2023-08-07T00:14:14;3.57;;;2.80;;
13588;SDS011;6865;52.552;13.434;2023-08-07T00:16:41;2.83;;;2.30;;
13588;SDS011;6865;52.552;13.434;2023-08-07T00:19:08;6.03;;;2.73;;
13588;SDS011;6865;52.552;13.434;2023-08-07T00:21:34;4.67;;;2.97;;
13588;SDS011;6865;52.552;13.434;2023-08-07T00:24:02;3.20;;;2.60;;
13588;SDS011;6865;52.552;13.434;2023-08-07T00:26:29;4.60;;;2.80;;
13588;SDS011;6865;52.552;13.434;2023-08-07T00:28:58;4.30;;;2.97;;
13588;SDS011;6865;52.552;13.434;2023-08-07T00:31:25;5.00;;;3.27;;
13588;SDS011;6865;52.552;13.434;2023-08-07T00:33:54;3.47;;;3.10;;
13588;SDS011;6865;52.552;13.434;2023-08-07T00:36:22;6.97;;;3.47;;
13588;SDS011;6865;52.552;13.434;2023-08-07T00:38:49;8.07;;;3.33;;
13588;SDS011;6865;52.552;13.434;2023-08-07T00:41:19;6.33;;;3.63;;
13588;SDS011;6865;52.552;13.434;2023-08-07T00:43:46;6.15;;;3.33;;
13588;SDS011;6865;52.552;13.434;2023-08-07T00:46:13;4.77;;;2.93;;
13588;SDS011;6865;52.552;13.434;2023-08-07T00:48:40;7.20;;;3.20;;
13588;SDS011;6865;52.552;13.434;2023-08-07T00:51:07;4.40;;;3.03;;
13588;SDS011;6865;52.552;13.434;2023-08-07T00:53:37;4.03;;;2.93;;
13588;SDS011;6865;52.552;13.434;2023-08-07T00:56:05;5.13;;;3.47;;
13588;SDS011;6865;52.552;13.434;2023-08-07T00:58:32;5.77;;;3.30;;
13588;SDS011;6865;52.552;13.434;2023-08-07T01:00:59;5.90;;;3.07;;
13588;SDS011;6865;52.552;13.434;2023-08-07T01:03:26;6.40;;;3.47;;
13588;SDS011;6865;52.552;13.434;2023-08-07T01:05:53;6.57;;;3.53;;
13588;SDS011;6865;52.552;13.434;2023-08-07T01:08:20;5.00;;;3.17;;
13588;SDS011;6865;52.552;13.434;2023-08-07T01:10:51;4.30;;;3.00;;
13588;SDS011;6865;52.552;13.434;2023-08-07T01:14:00;5.80;;;3.00;;
13588;SDS011;6865;52.552;13.434;2023-08-07T01:16:55;4.07;;;3.20;;
13588;SDS011;6865;52.552;13.434;2023-08-07T01:19:27;4.57;;;3.33;;
13588;SDS011;6865;52.552;13.434;2023-08-07T01:22:04;4.57;;;3.30;;
13588;SDS011;6865;52.552;13.434;2023-08-07T01:24:32;5.67;;;3.50;;
13588;SDS011;6865;52.552;13.434;2023-08-07T01:27:09;7.80;;;3.53;;
13588;SDS011;6865;52.552;13.434;2023-08-07T01:29:57;5.53;;;3.50;;
13588;SDS011;6865;52.552;13.434;2023-08-07T01:33:13;4.97;;;3.20;;
13588;SDS011;6865;52.552;13.434;2023-08-07T01:35:53;6.70;;;3.30;;
13588;SDS011;6865;52.552;13.434;2023-08-07T01:38:23;6.50;;;3.30;;
13588;SDS011;6865;52.552;13.434;2023-08-07T01:40:51;7.90;;;3.40;;
13588;SDS011;6865;52.552;13.434;2023-08-07T01:43:19;5.83;;;3.10;;
13588;SDS011;6865;52.552;13.434;2023-08-07T01:45:46;4.60;;;3.03;;
13588;SDS011;6865;52.552;13.434;2023-08-07T01:48:12;5.67;;;3.23;;
13588;SDS011;6865;52.552;13.434;2023-08-07T01:50:39;7.73;;;3.30;;
13588;SDS011;6865;52.552;13.434;2023-08-07T01:53:06;6.27;;;3.20;;
13588;SDS011;6865;52.552;13.434;2023-08-07T01:55:33;3.83;;;3.20;;
13588;SDS011;6865;52.552;13.434;2023-08-07T01:57:59;6.47;;;3.30;;
13588;SDS011;6865;52.552;13.434;2023-08-07T02:00:26;5.10;;;3.37;;
13588;SDS011;6865;52.552;13.434;2023-08-07T02:02:53;5.87;;;3.63;;
13588;SDS011;6865;52.552;13.434;2023-08-07T02:05:20;6.37;;;3.20;;
13588;SDS011;6865;52.552;13.434;2023-08-07T02:07:47;5.10;;;3.60;;
13588;SDS011;6865;52.552;13.434;2023-08-07T02:10:13;5.10;;;3.60;;
13588;SDS011;6865;52.552;13.434;2023-08-07T02:12:40;6.27;;;3.77;;
13588;SDS011;6865;52.552;13.434;2023-08-07T02:15:06;5.87;;;3.57;;
13588;SDS011;6865;52.552;13.434;2023-08-07T02:17:34;7.07;;;3.87;;
13588;SDS011;6865;52.552;13.434;2023-08-07T02:20:02;6.43;;;3.60;;
13588;SDS011;6865;52.552;13.434;2023-08-07T02:22:29;4.93;;;3.40;;
13588;SDS011;6865;52.552;13.434;2023-08-07T02:24:55;8.30;;;3.70;;
13588;SDS011;6865;52.552;13.434;2023-08-07T02:27:22;9.67;;;3.87;;
13588;SDS011;6865;52.552;13.434;2023-08-07T02:29:49;5.80;;;3.67;;
13588;SDS011;6865;52.552;13.434;2023-08-07T02:32:17;5.63;;;3.90;;
13588;SDS011;6865;52.552;13.434;2023-08-07T02:34:44;5.00;;;3.87;;
13588;SDS011;6865;52.552;13.434;2023-08-07T02:37:11;7.43;;;4.20;;
13588;SDS011;6865;52.552;13.434;2023-08-07T02:39:37;5.43;;;3.70;;
13588;SDS011;6865;52.552;13.434;2023-08-07T02:42:04;5.45;;;4.25;;
13588;SDS011;6865;52.552;13.434;2023-08-07T02:44:31;7.83;;;3.87;;
13588;SDS011;6865;52.552;13.434;2023-08-07T02:46:58;7.13;;;4.00;;
13588;SDS011;6865;52.552;13.434;2023-08-07T02:49:24;7.80;;;4.30;;
13588;SDS011;6865;52.552;13.434;2023-08-07T02:51:51;6.60;;;4.40;;
13588;SDS011;6865;52.552;13.434;2023-08-07T02:54:18;7.03;;;4.70;;
13588;SDS011;6865;52.552;13.434;2023-08-07T02:56:44;10.90;;;4.63;;
13588;SDS011;6865;52.552;13.434;2023-08-07T02:59:11;7.47;;;4.07;;
13588;SDS011;6865;52.552;13.434;2023-08-07T03:01:38;7.67;;;4.70;;
13588;SDS011;6865;52.552;13.434;2023-08-07T03:04:04;5.43;;;4.50;;
13588;SDS011;6865;52.552;13.434;2023-08-07T03:06:31;7.57;;;4.83;;
13588;SDS011;6865;52.552;13.434;2023-08-07T03:08:58;8.00;;;4.93;;
13588;SDS011;6865;52.552;13.434;2023-08-07T03:11:24;8.07;;;4.10;;
13588;SDS011;6865;52.552;13.434;2023-08-07T03:13:51;7.30;;;4.70;;
13588;SDS011;6865;52.552;13.434;2023-08-07T03:16:18;8.50;;;4.87;;
13588;SDS011;6865;52.552;13.434;2023-08-07T03:18:45;7.20;;;4.63;;
13588;SDS011;6865;52.552;13.434;2023-08-07T03:21:13;6.83;;;5.00;;
13588;SDS011;6865;52.552;13.434;2023-08-07T03:23:39;6.47;;;4.80;;
13588;SDS011;6865;52.552;13.434;2023-08-07T03:26:10;9.07;;;5.17;;
13588;SDS011;6865;52.552;13.434;2023-08-07T03:28:40;10.13;;;5.10;;
13588;SDS011;6865;52.552;13.434;2023-08-07T03:31:07;6.70;;;4.93;;
13588;SDS011;6865;52.552;13.434;2023-08-07T03:33:33;9.73;;;5.10;;
13588;SDS011;6865;52.552;13.434;2023-08-07T03:36:00;6.70;;;4.80;;
13588;SDS011;6865;52.552;13.434;2023-08-07T03:38:27;7.47;;;4.53;;
13588;SDS011;6865;52.552;13.434;2023-08-07T03:40:53;8.87;;;4.87;;
13588;SDS011;6865;52.552;13.434;2023-08-07T03:43:20;7.90;;;5.03;;
13588;SDS011;6865;52.552;13.434;2023-08-07T03:45:47;8.07;;;5.33;;
13588;SDS011;6865;52.552;13.434;2023-08-07T03:48:14;8.43;;;5.10;;
13588;SDS011;6865;52.552;13.434;2023-08-07T03:50:40;7.77;;;5.00;;
13588;SDS011;6865;52.552;13.434;2023-08-07T03:53:07;9.52;;;5.18;;
13588;SDS011;6865;52.552;13.434;2023-08-07T03:55:34;9.43;;;5.37;;
13588;SDS011;6865;52.552;13.434;2023-08-07T03:58:01;10.33;;;5.67;;
13588;SDS011;6865;52.552;13.434;2023-08-07T04:00:29;7.67;;;5.03;;
13588;SDS011;6865;52.552;13.434;2023-08-07T04:02:55;10.23;;;5.87;;
13588;SDS011;6865;52.552;13.434;2023-08-07T04:05:22;6.43;;;5.20;;
13588;SDS011;6865;52.552;13.434;2023-08-07T04:07:49;9.40;;;5.10;;
13588;SDS011;6865;52.552;13.434;2023-08-07T04:10:15;11.73;;;5.83;;
13588;SDS011;6865;52.552;13.434;2023-08-07T04:12:42;6.43;;;5.03;;
13588;SDS011;6865;52.552;13.434;2023-08-07T04:15:09;7.00;;;5.07;;
13588;SDS011;6865;52.552;13.434;2023-08-07T04:17:36;7.03;;;4.57;;
13588;SDS011;6865;52.552;13.434;2023-08-07T04:20:03;8.90;;;5.30;;
13588;SDS011;6865;52.552;13.434;2023-08-07T04:22:31;8.50;;;5.73;;
13588;SDS011;6865;52.552;13.434;2023-08-07T04:24:57;8.03;;;4.73;;
13588;SDS011;6865;52.552;13.434;2023-08-07T04:27:24;11.17;;;5.00;;
13588;SDS011;6865;52.552;13.434;2023-08-07T04:29:51;6.63;;;4.80;;
13588;SDS011;6865;52.552;13.434;2023-08-07T04:32:18;13.77;;;5.10;;
13588;SDS011;6865;52.552;13.434;2023-08-07T04:34:44;8.73;;;4.70;;
13588;SDS011;6865;52.552;13.434;2023-08-07T04:37:11;8.00;;;5.20;;
13588;SDS011;6865;52.552;13.434;2023-08-07T04:39:38;8.33;;;4.87;;
13588;SDS011;6865;52.552;13.434;2023-08-07T04:42:04;9.60;;;5.07;;
13588;SDS011;6865;52.552;13.434;2023-08-07T04:44:31;7.27;;;4.90;;
13588;SDS011;6865;52.552;13.434;2023-08-07T04:46:58;9.98;;;4.70;;
13588;SDS011;6865;52.552;13.434;2023-08-07T04:49:25;6.13;;;3.97;;
13588;SDS011;6865;52.552;13.434;2023-08-07T04:51:51;8.60;;;4.83;;
13588;SDS011;6865;52.552;13.434;2023-08-07T04:54:18;7.27;;;4.53;;
13588;SDS011;6865;52.552;13.434;2023-08-07T04:56:45;5.57;;;4.50;;
13588;SDS011;6865;52.552;13.434;2023-08-07T04:59:11;7.40;;;4.57;;
13588;SDS011;6865;52.552;13.434;2023-08-07T05:01:38;8.43;;;4.37;;
13588;SDS011;6865;52.552;13.434;2023-08-07T05:04:05;5.77;;;4.20;;
13588;SDS011;6865;52.552;13.434;2023-08-07T05:06:32;6.80;;;4.00;;
13588;SDS011;6865;52.552;13.434;2023-08-07T05:08:58;9.77;;;4.50;;
13588;SDS011;6865;52.552;13.434;2023-08-07T05:11:25;7.20;;;4.43;;
13588;SDS011;6865;52.552;13.434;2023-08-07T05:13:52;7.60;;;4.27;;
13588;SDS011;6865;52.552;13.434;2023-08-07T05:16:18;5.43;;;3.83;;
13588;SDS011;6865;52.552;13.434;2023-08-07T05:18:45;5.73;;;4.00;;
13588;SDS011;6865;52.552;13.434;2023-08-07T05:21:15;6.87;;;3.80;;
13588;SDS011;6865;52.552;13.434;2023-08-07T05:23:42;7.63;;;3.60;;
13588;SDS011;6865;52.552;13.434;2023-08-07T05:26:09;5.37;;;3.57;;
13588;SDS011;6865;52.552;13.434;2023-08-07T05:28:35;5.07;;;3.60;;
13588;SDS011;6865;52.552;13.434;2023-08-07T05:31:02;4.27;;;3.57;;
13588;SDS011;6865;52.552;13.434;2023-08-07T05:33:29;8.83;;;3.83;;
13588;SDS011;6865;52.552;13.434;2023-08-07T05:35:56;4.78;;;3.70;;
13588;SDS011;6865;52.552;13.434;2023-08-07T05:38:22;7.30;;;4.20;;
13588;SDS011;6865;52.552;13.434;2023-08-07T05:40:49;9.23;;;3.60;;
13588;SDS011;6865;52.552;13.434;2023-08-07T05:43:16;5.70;;;3.67;;
13588;SDS011;6865;52.552;13.434;2023-08-07T05:45:43;4.83;;;3.67;;
13588;SDS011;6865;52.552;13.434;2023-08-07T05:48:12;4.83;;;3.33;;
13588;SDS011;6865;52.552;13.434;2023-08-07T05:50:39;6.00;;;3.47;;
13588;SDS011;6865;52.552;13.434;2023-08-07T05:53:05;5.37;;;3.50;;
13588;SDS011;6865;52.552;13.434;2023-08-07T05:55:32;7.03;;;4.23;;
13588;SDS011;6865;52.552;13.434;2023-08-07T05:57:59;4.85;;;3.30;;
13588;SDS011;6865;52.552;13.434;2023-08-07T06:00:26;4.80;;;3.53;;
13588;SDS011;6865;52.552;13.434;2023-08-07T06:02:54;5.80;;;3.23;;
13588;SDS011;6865;52.552;13.434;2023-08-07T06:05:21;6.80;;;3.30;;
13588;SDS011;6865;52.552;13.434;2023-08-07T06:07:48;5.07;;;3.30;;
13588;SDS011;6865;52.552;13.434;2023-08-07T06:10:14;5.03;;;3.07;;
13588;SDS011;6865;52.552;13.434;2023-08-07T06:12:41;7.07;;;3.15;;
13588;SDS011;6865;52.552;13.434;2023-08-07T06:15:08;5.43;;;3.43;;
13588;SDS011;6865;52.552;13.434;2023-08-07T06:17:35;4.90;;;3.33;;
13588;SDS011;6865;52.552;13.434;2023-08-07T06:20:02;6.25;;;3.30;;
13588;SDS011;6865;52.552;13.434;2023-08-07T06:22:31;5.97;;;3.30;;
13588;SDS011;6865;52.552;13.434;2023-08-07T06:24:59;5.40;;;3.30;;
13588;SDS011;6865;52.552;13.434;2023-08-07T06:27:25;5.28;;;3.10;;
13588;SDS011;6865;52.552;13.434;2023-08-07T06:29:52;5.38;;;3.10;;
13588;SDS011;6865;52.552;13.434;2023-08-07T06:32:19;6.45;;;3.30;;
13588;SDS011;6865;52.552;13.434;2023-08-07T06:34:46;4.27;;;2.73;;
13588;SDS011;6865;52.552;13.434;2023-08-07T06:37:12;4.07;;;2.75;;
13588;SDS011;6865;52.552;13.434;2023-08-07T06:39:39;5.10;;;2.70;;
13588;SDS011;6865;52.552;13.434;2023-08-07T06:42:06;6.63;;;2.50;;
13588;SDS011;6865;52.552;13.434;2023-08-07T06:44:33;4.72;;;2.80;;
13588;SDS011;6865;52.552;13.434;2023-08-07T06:46:59;4.38;;;2.10;;
13588;SDS011;6865;52.552;13.434;2023-08-07T06:49:26;3.65;;;2.50;;
13588;SDS011;6865;52.552;13.434;2023-08-07T06:51:53;5.30;;;2.72;;
13588;SDS011;6865;52.552;13.434;2023-08-07T06:54:20;5.88;;;2.42;;
13588;SDS011;6865;52.552;13.434;2023-08-07T06:56:47;3.83;;;2.35;;
13588;SDS011;6865;52.552;13.434;2023-08-07T06:59:13;6.10;;;2.72;;
13588;SDS011;6865;52.552;13.434;2023-08-07T07:01:40;3.42;;;2.20;;
13588;SDS011;6865;52.552;13.434;2023-08-07T07:04:07;5.78;;;2.30;;
13588;SDS011;6865;52.552;13.434;2023-08-07T07:06:33;5.07;;;2.50;;
13588;SDS011;6865;52.552;13.434;2023-08-07T07:09:00;4.60;;;2.25;;
13588;SDS011;6865;52.552;13.434;2023-08-07T07:11:27;5.97;;;2.20;;
13588;SDS011;6865;52.552;13.434;2023-08-07T07:14:01;3.00;;;2.00;;
13588;SDS011;6865;52.552;13.434;2023-08-07T07:16:27;6.32;;;2.30;;
13588;SDS011;6865;52.552;13.434;2023-08-07T07:18:56;5.68;;;2.22;;
13588;SDS011;6865;52.552;13.434;2023-08-07T07:21:24;2.95;;;1.88;;
13588;SDS011;6865;52.552;13.434;2023-08-07T07:23:51;4.43;;;2.10;;
13588;SDS011;6865;52.552;13.434;2023-08-07T07:26:18;5.07;;;2.33;;
13588;SDS011;6865;52.552;13.434;2023-08-07T07:28:45;4.60;;;2.00;;
13588;SDS011;6865;52.552;13.434;2023-08-07T07:31:11;3.38;;;2.10;;
13588;SDS011;6865;52.552;13.434;2023-08-07T07:33:38;3.60;;;2.05;;
13588;SDS011;6865;52.552;13.434;2023-08-07T07:36:06;3.70;;;1.95;;
13588;SDS011;6865;52.552;13.434;2023-08-07T07:38:33;2.90;;;2.10;;
13588;SDS011;6865;52.552;13.434;2023-08-07T07:41:00;4.72;;;2.45;;
13588;SDS011;6865;52.552;13.434;2023-08-07T07:43:26;4.00;;;2.22;;
13588;SDS011;6865;52.552;13.434;2023-08-07T07:45:53;4.38;;;2.20;;
13588;SDS011;6865;52.552;13.434;2023-08-07T07:48:20;5.30;;;2.28;;
13588;SDS011;6865;52.552;13.434;2023-08-07T07:50:46;4.35;;;2.25;;
13588;SDS011;6865;52.552;13.434;2023-08-07T07:53:13;5.40;;;2.20;;
13588;SDS011;6865;52.552;13.434;2023-08-07T07:55:40;2.83;;;1.98;;
13588;SDS011;6865;52.552;13.434;2023-08-07T07:58:06;4.22;;;2.05;;
13588;SDS011;6865;52.552;13.434;2023-08-07T08:00:33;5.65;;;1.92;;
13588;SDS011;6865;52.552;13.434;2023-08-07T08:03:00;4.28;;;1.90;;
13588;SDS011;6865;52.552;13.434;2023-08-07T08:05:27;4.85;;;1.85;;
13588;SDS011;6865;52.552;13.434;2023-08-07T08:07:53;4.85;;;2.15;;
13588;SDS011;6865;52.552;13.434;2023-08-07T08:10:20;4.35;;;2.08;;
13588;SDS011;6865;52.552;13.434;2023-08-07T08:12:47;2.72;;;1.90;;
13588;SDS011;6865;52.552;13.434;2023-08-07T08:15:14;2.67;;;1.90;;
13588;SDS011;6865;52.552;13.434;2023-08-07T08:17:40;3.92;;;2.10;;
13588;SDS011;6865;52.552;13.434;2023-08-07T08:20:07;4.00;;;2.13;;
13588;SDS011;6865;52.552;13.434;2023-08-07T08:22:34;3.85;;;2.20;;
13588;SDS011;6865;52.552;13.434;2023-08-07T08:25:01;2.63;;;2.10;;
13588;SDS011;6865;52.552;13.434;2023-08-07T08:27:30;2.65;;;2.08;;
13588;SDS011;6865;52.552;13.434;2023-08-07T08:29:57;3.42;;;1.92;;
13588;SDS011;6865;52.552;13.434;2023-08-07T08:32:24;7.65;;;2.10;;
13588;SDS011;6865;52.552;13.434;2023-08-07T08:34:50;3.80;;;2.20;;
13588;SDS011;6865;52.552;13.434;2023-08-07T08:37:17;4.07;;;2.28;;
13588;SDS011;6865;52.552;13.434;2023-08-07T08:39:44;4.50;;;2.33;;
13588;SDS011;6865;52.552;13.434;2023-08-07T08:42:11;5.13;;;2.83;;
13588;SDS011;6865;52.552;13.434;2023-08-07T08:44:39;6.88;;;2.20;;
13588;SDS011;6865;52.552;13.434;2023-08-07T08:47:06;4.60;;;2.60;;
13588;SDS011;6865;52.552;13.434;2023-08-07T08:49:42;6.30;;;2.30;;
13588;SDS011;6865;52.552;13.434;2023-08-07T08:52:12;3.55;;;2.50;;
13588;SDS011;6865;52.552;13.434;2023-08-07T08:54:40;4.53;;;2.20;;
13588;SDS011;6865;52.552;13.434;2023-08-07T08:57:07;6.00;;;2.50;;
13588;SDS011;6865;52.552;13.434;2023-08-07T08:59:34;3.13;;;2.22;;
13588;SDS011;6865;52.552;13.434;2023-08-07T09:02:01;4.00;;;1.90;;
13588;SDS011;6865;52.552;13.434;2023-08-07T09:04:28;6.22;;;2.63;;
13588;SDS011;6865;52.552;13.434;2023-08-07T09:06:55;4.95;;;2.45;;
13588;SDS011;6865;52.552;13.434;2023-08-07T09:09:22;3.40;;;2.10;;
13588;SDS011;6865;52.552;13.434;2023-08-07T09:11:49;7.78;;;2.00;;
13588;SDS011;6865;52.552;13.434;2023-08-07T09:14:19;3.22;;;1.70;;
13588;SDS011;6865;52.552;13.434;2023-08-07T09:16:50;4.10;;;2.10;;
13588;SDS011;6865;52.552;13.434;2023-08-07T09:19:17;4.15;;;2.10;;
13588;SDS011;6865;52.552;13.434;2023-08-07T09:21:44;4.38;;;1.90;;
13588;SDS011;6865;52.552;13.434;2023-08-07T09:24:11;3.78;;;2.15;;
13588;SDS011;6865;52.552;13.434;2023-08-07T09:26:38;4.07;;;2.20;;
13588;SDS011;6865;52.552;13.434;2023-08-07T09:29:10;3.13;;;2.08;;
13588;SDS011;6865;52.552;13.434;2023-08-07T09:31:37;3.38;;;1.77;;
13588;SDS011;6865;52.552;13.434;2023-08-07T09:34:04;3.50;;;2.10;;
13588;SDS011;6865;52.552;13.434;2023-08-07T09:36:31;4.20;;;2.00;;
13588;SDS011;6865;52.552;13.434;2023-08-07T09:39:01;3.95;;;2.13;;
13588;SDS011;6865;52.552;13.434;2023-08-07T09:41:29;3.15;;;2.15;;
13588;SDS011;6865;52.552;13.434;2023-08-07T09:43:57;6.80;;;2.10;;
13588;SDS011;6865;52.552;13.434;2023-08-07T09:46:25;2.85;;;1.83;;
13588;SDS011;6865;52.552;13.434;2023-08-07T09:48:52;4.10;;;2.08;;
13588;SDS011;6865;52.552;13.434;2023-08-07T09:51:25;5.28;;;2.10;;
13588;SDS011;6865;52.552;13.434;2023-08-07T09:53:51;5.57;;;2.15;;
13588;SDS011;6865;52.552;13.434;2023-08-07T09:56:18;6.30;;;2.15;;
13588;SDS011;6865;52.552;13.434;2023-08-07T09:58:47;4.57;;;2.05;;
13588;SDS011;6865;52.552;13.434;2023-08-07T10:01:15;4.05;;;1.90;;
13588;SDS011;6865;52.552;13.434;2023-08-07T10:03:43;4.30;;;2.22;;
13588;SDS011;6865;52.552;13.434;2023-08-07T10:06:11;4.35;;;2.10;;
13588;SDS011;6865;52.552;13.434;2023-08-07T10:08:38;4.05;;;1.90;;
13588;SDS011;6865;52.552;13.434;2023-08-07T10:11:07;6.45;;;2.08;;
13588;SDS011;6865;52.552;13.434;2023-08-07T10:13:36;3.97;;;1.90;;
13588;SDS011;6865;52.552;13.434;2023-08-07T10:16:05;3.72;;;1.90;;
13588;SDS011;6865;52.552;13.434;2023-08-07T10:18:32;3.45;;;1.88;;
13588;SDS011;6865;52.552;13.434;2023-08-07T10:21:00;4.20;;;1.80;;
13588;SDS011;6865;52.552;13.434;2023-08-07T10:23:28;2.95;;;2.05;;
13588;SDS011;6865;52.552;13.434;2023-08-07T10:25:55;3.85;;;1.77;;
13588;SDS011;6865;52.552;13.434;2023-08-07T10:28:23;5.38;;;2.20;;
13588;SDS011;6865;52.552;13.434;2023-08-07T10:30:55;3.72;;;2.05;;
13588;SDS011;6865;52.552;13.434;2023-08-07T10:33:23;2.28;;;1.63;;
13588;SDS011;6865;52.552;13.434;2023-08-07T10:35:54;7.32;;;2.10;;
13588;SDS011;6865;52.552;13.434;2023-08-07T10:38:22;3.85;;;1.90;;
13588;SDS011;6865;52.552;13.434;2023-08-07T10:41:04;5.82;;;1.70;;
13588;SDS011;6865;52.552;13.434;2023-08-07T10:43:40;3.28;;;1.88;;
13588;SDS011;6865;52.552;13.434;2023-08-07T10:46:11;5.10;;;1.95;;
13588;SDS011;6865;52.552;13.434;2023-08-07T10:48:40;5.03;;;1.90;;
13588;SDS011;6865;52.552;13.434;2023-08-07T10:51:08;4.97;;;1.77;;
13588;SDS011;6865;52.552;13.434;2023-08-07T10:53:35;3.33;;;1.60;;
13588;SDS011;6865;52.552;13.434;2023-08-07T10:56:10;4.68;;;1.60;;
13588;SDS011;6865;52.552;13.434;2023-08-07T10:58:49;3.65;;;1.92;;
13588;SDS011;6865;52.552;13.434;2023-08-07T11:04:11;3.45;;;1.70;;
13588;SDS011;6865;52.552;13.434;2023-08-07T11:06:40;2.80;;;1.80;;
13588;SDS011;6865;52.552;13.434;2023-08-07T11:09:08;5.95;;;1.88;;
13588;SDS011;6865;52.552;13.434;2023-08-07T11:11:43;3.10;;;1.58;;
13588;SDS011;6865;52.552;13.434;2023-08-07T11:14:15;9.23;;;1.67;;
13588;SDS011;6865;52.552;13.434;2023-08-07T11:16:43;8.02;;;2.20;;
13588;SDS011;6865;52.552;13.434;2023-08-07T11:19:11;2.55;;;1.67;;
13588;SDS011;6865;52.552;13.434;2023-08-07T11:21:43;4.18;;;1.85;;
13588;SDS011;6865;52.552;13.434;2023-08-07T11:24:12;5.65;;;2.00;;
13588;SDS011;6865;52.552;13.434;2023-08-07T11:26:41;4.53;;;1.90;;
13588;SDS011;6865;52.552;13.434;2023-08-07T11:29:10;4.72;;;2.00;;
13588;SDS011;6865;52.552;13.434;2023-08-07T11:31:36;9.00;;;6.30;;
13588;SDS011;6865;52.552;13.434;2023-08-07T11:34:03;3.63;;;2.30;;
13588;SDS011;6865;52.552;13.434;2023-08-07T11:36:30;5.10;;;2.20;;
13588;SDS011;6865;52.552;13.434;2023-08-07T11:38:57;4.07;;;2.17;;
13588;SDS011;6865;52.552;13.434;2023-08-07T11:41:24;5.13;;;2.10;;
13588;SDS011;6865;52.552;13.434;2023-08-07T11:43:51;2.97;;;2.10;;
13588;SDS011;6865;52.552;13.434;2023-08-07T11:46:18;5.05;;;2.33;;
13588;SDS011;6865;52.552;13.434;2023-08-07T11:48:44;4.97;;;2.25;;
13588;SDS011;6865;52.552;13.434;2023-08-07T11:51:11;4.78;;;2.00;;
13588;SDS011;6865;52.552;13.434;2023-08-07T11:53:39;4.22;;;2.10;;
13588;SDS011;6865;52.552;13.434;2023-08-07T11:56:08;3.65;;;1.98;;
13588;SDS011;6865;52.552;13.434;2023-08-07T11:58:37;4.55;;;2.75;;
13588;SDS011;6865;52.552;13.434;2023-08-07T12:01:06;4.50;;;2.05;;
13588;SDS011;6865;52.552;13.434;2023-08-07T12:03:38;5.80;;;2.13;;
13588;SDS011;6865;52.552;13.434;2023-08-07T12:06:08;4.00;;;2.00;;
13588;SDS011;6865;52.552;13.434;2023-08-07T12:08:39;3.03;;;1.88;;
13588;SDS011;6865;52.552;13.434;2023-08-07T12:11:08;5.55;;;1.95;;
13588;SDS011;6865;52.552;13.434;2023-08-07T12:13:39;2.95;;;2.20;;
13588;SDS011;6865;52.552;13.434;2023-08-07T12:16:11;5.68;;;2.20;;
13588;SDS011;6865;52.552;13.434;2023-08-07T12:18:45;3.53;;;2.00;;
13588;SDS011;6865;52.552;13.434;2023-08-07T12:21:17;5.03;;;3.17;;
13588;SDS011;6865;52.552;13.434;2023-08-07T12:23:46;4.55;;;2.10;;
13588;SDS011;6865;52.552;13.434;2023-08-07T12:26:14;5.18;;;2.20;;
13588;SDS011;6865;52.552;13.434;2023-08-07T12:28:41;4.10;;;2.00;;
13588;SDS011;6865;52.552;13.434;2023-08-07T12:31:08;4.70;;;2.20;;
13588;SDS011;6865;52.552;13.434;2023-08-07T12:33:34;5.43;;;1.95;;
13588;SDS011;6865;52.552;13.434;2023-08-07T12:36:01;4.57;;;2.13;;
13588;SDS011;6865;52.552;13.434;2023-08-07T12:38:28;4.20;;;2.10;;
13588;SDS011;6865;52.552;13.434;2023-08-07T12:40:55;4.43;;;2.15;;
13588;SDS011;6865;52.552;13.434;2023-08-07T12:43:23;4.47;;;2.10;;
13588;SDS011;6865;52.552;13.434;2023-08-07T12:45:50;10.98;;;2.65;;
13588;SDS011;6865;52.552;13.434;2023-08-07T12:48:18;6.32;;;2.35;;
13588;SDS011;6865;52.552;13.434;2023-08-07T12:50:46;5.03;;;2.28;;
13588;SDS011;6865;52.552;13.434;2023-08-07T12:53:12;5.13;;;2.67;;
13588;SDS011;6865;52.552;13.434;2023-08-07T12:55:39;9.48;;;2.40;;
13588;SDS011;6865;52.552;13.434;2023-08-07T12:58:06;5.20;;;2.38;;
13588;SDS011;6865;52.552;13.434;2023-08-07T13:00:32;8.43;;;2.10;;
13588;SDS011;6865;52.552;13.434;2023-08-07T13:02:59;5.00;;;2.15;;
13588;SDS011;6865;52.552;13.434;2023-08-07T13:05:27;6.35;;;2.17;;
13588;SDS011;6865;52.552;13.434;2023-08-07T13:07:55;4.63;;;2.35;;
13588;SDS011;6865;52.552;13.434;2023-08-07T13:10:24;8.98;;;2.25;;
13588;SDS011;6865;52.552;13.434;2023-08-07T13:12:54;6.00;;;2.53;;
13588;SDS011;6865;52.552;13.434;2023-08-07T13:15:21;6.88;;;2.65;;
13588;SDS011;6865;52.552;13.434;2023-08-07T13:17:47;7.47;;;2.50;;
13588;SDS011;6865;52.552;13.434;2023-08-07T13:20:14;6.35;;;2.35;;
13588;SDS011;6865;52.552;13.434;2023-08-07T13:22:42;6.50;;;2.38;;
13588;SDS011;6865;52.552;13.434;2023-08-07T13:25:10;5.20;;;2.25;;
13588;SDS011;6865;52.552;13.434;2023-08-07T13:27:38;8.85;;;2.10;;
13588;SDS011;6865;52.552;13.434;2023-08-07T13:30:05;3.80;;;2.10;;
13588;SDS011;6865;52.552;13.434;2023-08-07T13:32:33;4.07;;;2.00;;
13588;SDS011;6865;52.552;13.434;2023-08-07T13:35:00;8.10;;;2.22;;
13588;SDS011;6865;52.552;13.434;2023-08-07T13:37:28;6.57;;;2.60;;
13588;SDS011;6865;52.552;13.434;2023-08-07T13:39:55;7.50;;;2.22;;
13588;SDS011;6865;52.552;13.434;2023-08-07T13:42:25;5.22;;;2.33;;
13588;SDS011;6865;52.552;13.434;2023-08-07T13:44:54;5.75;;;2.60;;
13588;SDS011;6865;52.552;13.434;2023-08-07T13:47:21;5.05;;;2.22;;
13588;SDS011;6865;52.552;13.434;2023-08-07T13:49:48;7.63;;;2.20;;
13588;SDS011;6865;52.552;13.434;2023-08-07T13:52:15;7.38;;;2.60;;
13588;SDS011;6865;52.552;13.434;2023-08-07T13:54:41;10.25;;;2.70;;
13588;SDS011;6865;52.552;13.434;2023-08-07T13:57:08;4.97;;;2.47;;
13588;SDS011;6865;52.552;13.434;2023-08-07T13:59:35;5.90;;;2.15;;
13588;SDS011;6865;52.552;13.434;2023-08-07T14:02:01;8.60;;;2.30;;
13588;SDS011;6865;52.552;13.434;2023-08-07T14:04:28;10.32;;;2.45;;
13588;SDS011;6865;52.552;13.434;2023-08-07T14:06:55;5.97;;;2.50;;
13588;SDS011;6865;52.552;13.434;2023-08-07T14:09:23;8.20;;;2.45;;
13588;SDS011;6865;52.552;13.434;2023-08-07T14:11:49;7.40;;;2.30;;
13588;SDS011;6865;52.552;13.434;2023-08-07T14:14:16;6.43;;;2.35;;
13588;SDS011;6865;52.552;13.434;2023-08-07T14:16:43;7.25;;;2.45;;
13588;SDS011;6865;52.552;13.434;2023-08-07T14:19:10;5.25;;;2.58;;
13588;SDS011;6865;52.552;13.434;2023-08-07T14:21:37;8.00;;;2.60;;
13588;SDS011;6865;52.552;13.434;2023-08-07T14:24:05;9.20;;;2.60;;
13588;SDS011;6865;52.552;13.434;2023-08-07T14:26:32;11.82;;;6.43;;
13588;SDS011;6865;52.552;13.434;2023-08-07T14:28:59;6.15;;;2.42;;
13588;SDS011;6865;52.552;13.434;2023-08-07T14:31:26;6.88;;;2.70;;
13588;SDS011;6865;52.552;13.434;2023-08-07T14:33:52;6.00;;;2.40;;
13588;SDS011;6865;52.552;13.434;2023-08-07T14:36:20;7.65;;;2.63;;
13588;SDS011;6865;52.552;13.434;2023-08-07T14:38:47;5.63;;;2.67;;
13588;SDS011;6865;52.552;13.434;2023-08-07T14:41:13;6.35;;;2.20;;
13588;SDS011;6865;52.552;13.434;2023-08-07T14:43:40;7.80;;;2.40;;
13588;SDS011;6865;52.552;13.434;2023-08-07T14:46:07;6.95;;;2.83;;
13588;SDS011;6865;52.552;13.434;2023-08-07T14:48:34;7.85;;;2.45;;
13588;SDS011;6865;52.552;13.434;2023-08-07T14:51:00;6.13;;;2.53;;
13588;SDS011;6865;52.552;13.434;2023-08-07T14:53:27;5.75;;;2.25;;
13588;SDS011;6865;52.552;13.434;2023-08-07T14:55:54;8.20;;;2.50;;